Time;durP1;ratioP1;P1;durP2;ratioP2;P2;SDS_P1;SDS_P2;PMS_P1;PMS_P2;Temp;Humidity;BMP_temperature;BMP_pressure;BME280_temperature;BME280_humidity;BME280_pressure;Samples;Min_cycle;Max_cycle;Signal;HPM_P1;HPM_P2
2022/05/30 00:01:17;;;;;;;6.43;1.80;;;9.50;99.90;;;;;;4198152;28;20669;-87
2022/05/30 00:03:19;;;;;;;7.57;1.80;;;9.40;99.90;;;;;;4198522;28;20257;-87
2022/05/30 00:05:22;;;;;;;4.33;1.80;;;9.50;99.90;;;;;;4181755;28;20199;-87
2022/05/30 00:07:22;;;;;;;4.63;1.77;;;9.60;99.90;;;;;;4181665;28;20195;-87
2022/05/30 00:09:23;;;;;;;7.27;2.37;;;9.50;99.90;;;;;;4181650;28;20251;-87
2022/05/30 00:11:26;;;;;;;5.30;1.73;;;9.50;99.90;;;;;;4198157;28;20276;-87
2022/05/30 00:13:27;;;;;;;11.77;2.10;;;9.60;99.90;;;;;;4181692;28;20164;-87
2022/05/30 00:15:29;;;;;;;7.03;2.07;;;9.40;99.90;;;;;;4198182;28;20627;-87
2022/05/30 00:17:30;;;;;;;7.37;2.07;;;9.40;99.90;;;;;;4197969;28;20285;-87
2022/05/30 00:19:31;;;;;;;5.07;2.00;;;9.30;99.90;;;;;;4198023;28;20184;-87
2022/05/30 00:21:31;;;;;;;6.90;2.07;;;9.40;99.90;;;;;;4198059;28;20544;-87
2022/05/30 00:23:32;;;;;;;4.03;1.50;;;9.30;99.90;;;;;;4181284;28;20167;-87
2022/05/30 00:25:33;;;;;;;4.67;2.00;;;9.30;99.90;;;;;;4181208;28;20207;-87
2022/05/30 00:27:34;;;;;;;9.97;2.33;;;9.30;99.90;;;;;;4181265;28;20202;-87
2022/05/30 00:29:35;;;;;;;7.67;2.40;;;9.30;99.90;;;;;;4198015;28;20543;-87
2022/05/30 00:31:35;;;;;;;5.33;1.83;;;9.40;99.90;;;;;;4196999;28;20186;-87
2022/05/30 00:33:37;;;;;;;7.17;1.83;;;9.30;99.90;;;;;;4181201;28;20659;-87
2022/05/30 00:35:39;;;;;;;4.90;2.10;;;9.40;99.90;;;;;;4181178;28;20171;-87
2022/05/30 00:37:39;;;;;;;5.60;1.90;;;9.30;99.90;;;;;;4181254;28;20591;-87
2022/05/30 00:39:40;;;;;;;7.60;2.07;;;9.30;99.90;;;;;;4181182;28;20167;-86
2022/05/30 00:41:41;;;;;;;7.80;2.53;;;9.20;99.90;;;;;;4181365;28;20170;-87
2022/05/30 00:43:46;;;;;;;7.10;2.40;;;9.20;99.90;;;;;;4197686;28;20688;-87
2022/05/30 00:45:47;;;;;;;7.83;2.23;;;9.30;99.90;;;;;;4197477;28;20214;-86
2022/05/30 00:47:50;;;;;;;7.50;1.80;;;9.30;99.90;;;;;;4197582;28;20187;-87
2022/05/30 00:49:52;;;;;;;7.37;2.30;;;9.20;99.90;;;;;;4197563;28;20186;-87
2022/05/30 00:51:55;;;;;;;7.03;2.40;;;9.20;99.90;;;;;;4181131;28;20215;-87
2022/05/30 00:53:57;;;;;;;3.90;1.80;;;9.20;99.90;;;;;;4197603;28;20174;-86
2022/05/30 00:56:00;;;;;;;4.83;2.17;;;9.10;99.90;;;;;;4197673;28;20665;-86
2022/05/30 00:58:02;;;;;;;7.17;2.43;;;9.10;99.90;;;;;;4197413;28;20225;-86
2022/05/30 01:00:18;;;;;;;6.13;1.87;;;9.10;99.90;;;;;;4180732;28;20174;-86
2022/05/30 01:02:23;;;;;;;4.83;2.33;;;9.10;99.90;;;;;;4197169;28;20174;-86
2022/05/30 01:06:45;;;;;;;6.93;2.30;;;9.10;99.90;;;;;;4197097;28;20244;-86
2022/05/30 01:08:46;;;;;;;7.40;2.30;;;9.10;99.90;;;;;;4197526;28;20202;-85
2022/05/30 01:10:47;;;;;;;5.43;2.43;;;9.20;99.90;;;;;;4197392;28;20538;-86
2022/05/30 01:12:54;;;;;;;8.67;2.57;;;9.20;99.90;;;;;;4180471;28;20179;-86
2022/05/30 01:14:55;;;;;;;6.77;2.30;;;9.20;99.90;;;;;;4198432;28;20507;-86
2022/05/30 01:16:57;;;;;;;4.63;1.93;;;9.20;99.90;;;;;;4197393;28;20288;-86
2022/05/30 01:19:01;;;;;;;6.30;2.40;;;9.10;99.90;;;;;;4197148;28;20171;-87
2022/05/30 01:21:25;;;;;;;8.50;2.73;;;9.20;99.90;;;;;;4197221;28;20221;-87
2022/05/30 01:23:43;;;;;;;10.33;2.83;;;9.20;99.90;;;;;;4197706;28;20264;-87
2022/05/30 01:26:09;;;;;;;8.50;2.70;;;9.10;99.90;;;;;;4182226;28;20215;-87
2022/05/30 01:28:42;;;;;;;7.90;2.77;;;9.20;99.90;;;;;;4181635;28;20206;-87
2022/05/30 01:30:43;;;;;;;5.47;2.40;;;9.20;99.90;;;;;;4181117;28;20678;-87
2022/05/30 01:32:44;;;;;;;6.47;2.53;;;9.00;99.90;;;;;;4181027;28;20171;-87
2022/05/30 01:34:45;;;;;;;7.10;2.43;;;9.00;99.90;;;;;;4197140;28;20167;-87
2022/05/30 01:36:46;;;;;;;7.50;2.63;;;9.00;99.90;;;;;;4180596;28;20305;-87
2022/05/30 01:38:47;;;;;;;7.70;2.77;;;8.90;99.90;;;;;;4180764;28;20575;-87
2022/05/30 01:40:51;;;;;;;7.20;2.93;;;8.80;99.90;;;;;;4181062;28;20560;-87
2022/05/30 01:42:53;;;;;;;7.47;3.30;;;8.80;99.90;;;;;;4181602;28;20183;-87
2022/05/30 01:44:55;;;;;;;7.77;3.20;;;9.00;99.90;;;;;;4200403;28;20171;-87
2022/05/30 01:46:55;;;;;;;11.47;3.33;;;9.10;99.90;;;;;;4200423;28;20285;-87
2022/05/30 01:48:56;;;;;;;8.80;3.70;;;8.90;99.90;;;;;;4183570;28;20483;-87
2022/05/30 01:50:59;;;;;;;8.77;3.57;;;9.00;99.90;;;;;;4201185;28;20171;-87
2022/05/30 01:53:02;;;;;;;7.40;3.10;;;8.90;99.90;;;;;;4200029;28;20642;-87
2022/05/30 01:55:21;;;;;;;5.27;2.90;;;8.80;99.90;;;;;;4200531;28;20198;-87
2022/05/30 01:57:37;;;;;;;7.47;3.37;;;8.80;99.90;;;;;;4200061;28;20191;-87
2022/05/30 02:00:10;;;;;;;9.73;3.60;;;8.80;99.90;;;;;;4201209;28;20618;-87
2022/05/30 02:02:17;;;;;;;6.90;3.27;;;8.80;99.90;;;;;;4201597;28;20316;-87
2022/05/30 02:04:18;;;;;;;8.27;3.77;;;8.80;99.90;;;;;;4200280;28;20570;-87
2022/05/30 02:06:20;;;;;;;7.57;3.10;;;8.70;99.90;;;;;;4183575;28;20211;-87
2022/05/30 02:08:21;;;;;;;9.07;3.67;;;8.70;99.90;;;;;;4183380;28;20191;-87
2022/05/30 02:10:22;;;;;;;7.63;3.90;;;8.70;99.90;;;;;;4183634;28;20180;-87
2022/05/30 02:12:24;;;;;;;7.60;3.53;;;8.70;99.90;;;;;;4183587;28;20172;-87
2022/05/30 02:14:36;;;;;;;5.90;3.30;;;8.70;99.90;;;;;;4184999;28;20613;-87
2022/05/30 02:18:58;;;;;;;5.87;3.07;;;8.70;99.90;;;;;;4199747;28;20171;-87
2022/05/30 02:21:00;;;;;;;9.63;3.67;;;8.70;99.90;;;;;;4200033;28;20175;-87
2022/05/30 02:23:00;;;;;;;7.07;3.43;;;8.70;99.90;;;;;;4199790;28;20175;-87
2022/05/30 02:25:03;;;;;;;7.50;3.20;;;8.60;99.90;;;;;;4182959;28;20215;-87
2022/05/30 02:27:06;;;;;;;6.20;3.20;;;8.60;99.90;;;;;;4183201;28;20557;-87
2022/05/30 02:29:07;;;;;;;6.87;2.97;;;8.60;99.90;;;;;;4183287;28;20179;-87
2022/05/30 02:31:08;;;;;;;5.47;2.93;;;8.50;99.90;;;;;;4199690;28;20186;-87
2022/05/30 02:37:51;;;;;;;7.63;3.10;;;8.30;99.90;;;;;;4200948;28;20202;-87
2022/05/30 02:40:11;;;;;;;7.30;3.40;;;8.20;99.90;;;;;;4200041;28;20182;-87
2022/05/30 02:42:17;;;;;;;5.77;3.50;;;8.20;99.90;;;;;;4199998;28;20163;-87
2022/05/30 02:44:20;;;;;;;12.30;4.43;;;8.20;99.90;;;;;;4199552;28;20666;-87
2022/05/30 02:46:21;;;;;;;8.33;4.40;;;8.20;99.90;;;;;;4199479;28;20206;-87
2022/05/30 02:48:23;;;;;;;8.23;4.87;;;8.30;99.90;;;;;;4182886;28;20198;-87
2022/05/30 02:50:24;;;;;;;10.90;4.83;;;8.20;99.90;;;;;;4199384;28;20179;-87
2022/05/30 02:52:25;;;;;;;9.70;5.17;;;8.30;99.90;;;;;;4199432;28;20166;-87
2022/05/30 02:54:26;;;;;;;9.93;4.40;;;8.30;99.90;;;;;;4181675;28;20183;-87
2022/05/30 02:56:56;;;;;;;8.53;4.00;;;8.40;99.90;;;;;;4208688;28;20191;-87
2022/05/30 02:58:58;;;;;;;8.43;4.07;;;8.40;99.90;;;;;;4183026;28;20282;-88
2022/05/30 03:00:59;;;;;;;8.57;3.70;;;8.30;99.90;;;;;;4199399;28;20189;-87
2022/05/30 03:03:00;;;;;;;7.17;3.60;;;8.30;99.90;;;;;;4182701;28;20167;-87
2022/05/30 03:05:02;;;;;;;8.80;3.73;;;8.20;99.90;;;;;;4182432;28;20549;-86
2022/05/30 03:07:03;;;;;;;7.37;3.93;;;8.10;99.90;;;;;;4198952;28;20290;-88
2022/05/30 03:09:05;;;;;;;8.43;4.20;;;8.10;99.90;;;;;;4182569;28;20685;-87
2022/05/30 03:11:42;;;;;;;8.07;4.40;;;8.10;99.90;;;;;;4183170;28;20175;-87
2022/05/30 03:13:43;;;;;;;7.73;4.17;;;8.00;99.90;;;;;;4199045;28;20175;-87
2022/05/30 03:15:44;;;;;;;10.07;4.53;;;8.00;99.90;;;;;;4182623;28;20213;-87
2022/05/30 03:17:45;;;;;;;12.10;5.20;;;8.00;99.90;;;;;;4198944;28;20198;-87
2022/05/30 03:19:46;;;;;;;10.60;4.80;;;8.00;99.90;;;;;;4199012;28;20182;-87
2022/05/30 03:21:46;;;;;;;10.10;4.83;;;8.10;99.90;;;;;;4182332;28;20201;-87
2022/05/30 03:23:47;;;;;;;13.10;5.83;;;8.10;99.90;;;;;;4198842;28;20170;-87
2022/05/30 03:25:55;;;;;;;11.90;5.53;;;8.10;99.90;;;;;;4183301;28;20575;-87
2022/05/30 03:27:57;;;;;;;11.57;5.97;;;8.20;99.90;;;;;;4182378;28;20218;-88
2022/05/30 03:29:58;;;;;;;14.27;5.97;;;8.10;99.90;;;;;;4182124;28;20659;-87
2022/05/30 03:31:59;;;;;;;10.80;6.00;;;8.10;99.90;;;;;;4182493;28;20171;-88
2022/05/30 03:34:01;;;;;;;12.87;6.53;;;8.10;99.90;;;;;;4198917;28;20179;-87
2022/05/30 03:36:07;;;;;;;11.50;5.77;;;8.10;99.90;;;;;;4182325;28;20192;-88
2022/05/30 03:38:28;;;;;;;9.63;6.07;;;8.00;99.90;;;;;;4198789;28;20193;-88
2022/05/30 03:40:51;;;;;;;12.83;6.63;;;8.00;99.90;;;;;;4170833;28;20175;-87
2022/05/30 03:43:21;;;;;;;15.97;6.60;;;8.00;99.90;;;;;;4186656;28;20175;-88
2022/05/30 03:45:22;;;;;;;14.30;7.10;;;8.00;99.90;;;;;;4198608;28;20214;-88
2022/05/30 03:47:23;;;;;;;12.47;6.67;;;8.10;99.90;;;;;;4182151;28;20198;-87
2022/05/30 03:49:24;;;;;;;14.77;7.47;;;8.20;99.90;;;;;;4182033;28;20175;-87
2022/05/30 03:51:25;;;;;;;14.80;7.30;;;8.20;99.90;;;;;;4181990;28;20164;-87
2022/05/30 03:53:25;;;;;;;13.90;7.20;;;8.30;99.90;;;;;;4198296;28;20236;-88
2022/05/30 03:55:27;;;;;;;14.83;7.17;;;8.30;99.90;;;;;;4181865;28;20182;-87
2022/05/30 03:57:28;;;;;;;14.83;6.43;;;8.30;99.90;;;;;;4181569;28;20187;-87
2022/05/30 03:59:28;;;;;;;17.17;7.07;;;8.30;99.90;;;;;;4181919;28;20187;-87
2022/05/30 04:01:29;;;;;;;15.77;6.50;;;8.30;99.90;;;;;;4181909;28;20632;-88
2022/05/30 04:03:30;;;;;;;13.83;6.43;;;8.30;99.90;;;;;;4181619;28;20171;-87
2022/05/30 04:05:31;;;;;;;12.03;6.10;;;8.40;99.90;;;;;;4197799;28;20202;-87
2022/05/30 04:07:32;;;;;;;11.63;6.57;;;8.30;99.90;;;;;;4199153;28;20207;-88
2022/05/30 04:10:07;;;;;;;11.83;6.00;;;8.30;99.90;;;;;;4198263;28;20210;-87
2022/05/30 04:12:27;;;;;;;16.47;6.50;;;8.40;99.90;;;;;;4199167;28;20732;-88
2022/05/30 04:15:01;;;;;;;10.47;5.67;;;8.30;99.90;;;;;;4148235;28;20181;-88
2022/05/30 04:17:05;;;;;;;12.27;5.73;;;8.30;99.90;;;;;;4198021;28;20208;-88
2022/05/30 04:19:07;;;;;;;11.47;5.13;;;8.40;99.90;;;;;;4181543;28;20229;-87
2022/05/30 04:21:09;;;;;;;14.47;6.23;;;8.50;99.90;;;;;;4181643;28;20574;-87
2022/05/30 04:23:10;;;;;;;11.27;5.90;;;8.50;99.90;;;;;;4197994;28;20240;-86
2022/05/30 04:25:17;;;;;;;13.53;6.30;;;8.50;99.90;;;;;;4197853;28;20248;-88
2022/05/30 04:27:18;;;;;;;13.27;5.60;;;8.50;99.90;;;;;;4181270;28;20207;-87
2022/05/30 04:29:19;;;;;;;11.33;5.73;;;8.50;99.90;;;;;;4197846;28;20170;-87
2022/05/30 04:31:40;;;;;;;8.87;5.17;;;8.60;99.90;;;;;;4197746;28;20210;-87
2022/05/30 04:33:43;;;;;;;9.73;5.50;;;8.70;99.90;;;;;;4197789;28;20174;-88
2022/05/30 04:35:43;;;;;;;9.40;5.43;;;8.80;99.90;;;;;;4181491;28;20205;-87
2022/05/30 04:37:49;;;;;;;11.73;5.87;;;8.90;99.90;;;;;;4181286;28;20187;-87
2022/05/30 04:40:06;;;;;;;11.27;5.30;;;9.00;99.90;;;;;;4183154;28;20285;-87
2022/05/30 04:42:25;;;;;;;13.57;4.90;;;9.00;99.90;;;;;;4198304;28;20189;-87
2022/05/30 04:45:00;;;;;;;9.97;5.50;;;9.00;99.90;;;;;;4197919;28;20654;-87
2022/05/30 04:47:15;;;;;;;9.97;5.37;;;9.20;99.90;;;;;;4197744;28;20210;-87
2022/05/30 04:49:22;;;;;;;8.70;5.43;;;9.20;99.90;;;;;;4181803;28;20602;-87
2022/05/30 04:51:23;;;;;;;7.53;4.80;;;9.20;99.90;;;;;;4181150;28;20179;-87
2022/05/30 04:53:23;;;;;;;8.53;5.00;;;9.20;99.90;;;;;;4180883;28;20179;-87
2022/05/30 04:55:43;;;;;;;7.20;4.20;;;9.20;99.90;;;;;;4197573;28;20189;-88
2022/05/30 04:57:50;;;;;;;5.53;3.67;;;9.20;99.90;;;;;;4197452;28;20282;-88
2022/05/30 05:00:14;;;;;;;7.13;3.80;;;9.20;99.90;;;;;;4197636;28;20170;-87
2022/05/30 05:02:17;;;;;;;5.70;3.70;;;9.20;99.90;;;;;;4197519;28;20275;-88
2022/05/30 05:04:19;;;;;;;6.83;4.03;;;9.20;99.90;;;;;;4197490;28;20206;-87
2022/05/30 05:06:20;;;;;;;9.43;4.33;;;9.20;99.90;;;;;;4180903;28;20203;-87
2022/05/30 05:08:31;;;;;;;7.43;4.30;;;9.30;99.90;;;;;;4180668;28;20679;-87
2022/05/30 05:10:58;;;;;;;7.83;4.63;;;9.30;99.90;;;;;;4197623;28;20217;-87
2022/05/30 05:13:18;;;;;;;10.77;4.83;;;9.40;99.90;;;;;;4197616;28;20217;-87
2022/05/30 05:15:41;;;;;;;9.37;4.40;;;9.50;99.90;;;;;;4169529;28;20626;-88
2022/05/30 05:17:47;;;;;;;9.33;5.27;;;9.70;99.90;;;;;;4198789;28;20834;-87
2022/05/30 05:19:48;;;;;;;9.60;6.33;;;9.90;99.90;;;;;;4200890;28;20265;-87
2022/05/30 05:21:50;;;;;;;12.17;6.17;;;10.00;99.90;;;;;;4200835;28;20179;-87
2022/05/30 05:23:51;;;;;;;12.97;6.27;;;10.10;99.90;;;;;;4184189;28;20536;-87
2022/05/30 05:25:53;;;;;;;11.73;5.93;;;10.10;99.90;;;;;;4183986;28;20210;-88
2022/05/30 05:28:12;;;;;;;12.53;6.07;;;10.00;99.90;;;;;;4201019;28;20209;-87
2022/05/30 05:30:13;;;;;;;13.83;5.67;;;9.90;99.90;;;;;;4200686;28;20179;-87
2022/05/30 05:32:17;;;;;;;11.60;6.17;;;10.00;99.90;;;;;;4200618;28;20611;-87
2022/05/30 05:34:18;;;;;;;12.57;6.43;;;10.30;99.90;;;;;;4184137;28;20172;-90
2022/05/30 05:36:24;;;;;;;10.87;6.70;;;10.40;99.90;;;;;;4184305;28;20175;-90
2022/05/30 05:38:25;;;;;;;10.27;6.40;;;10.60;99.90;;;;;;4200474;28;20197;-90
2022/05/30 05:40:53;;;;;;;10.37;6.10;;;10.90;99.90;;;;;;4170669;28;20266;-90
2022/05/30 05:42:54;;;;;;;12.33;6.93;;;11.10;99.90;;;;;;4183698;28;20571;-90
2022/05/30 05:44:56;;;;;;;11.93;6.43;;;11.30;99.90;;;;;;4183951;28;20171;-89
2022/05/30 05:46:58;;;;;;;10.20;6.57;;;11.50;99.90;;;;;;4183864;28;20737;-90
2022/05/30 05:49:00;;;;;;;12.60;6.13;;;11.70;99.90;;;;;;4184002;28;20685;-90
2022/05/30 05:51:03;;;;;;;12.65;6.03;;;11.80;99.90;;;;;;4200328;28;20175;-90
2022/05/30 05:53:05;;;;;;;11.18;6.93;;;12.00;99.90;;;;;;4183692;28;20206;-89
2022/05/30 05:55:06;;;;;;;17.98;7.25;;;12.20;99.90;;;;;;4183706;28;20237;-90
2022/05/30 05:57:09;;;;;;;14.10;7.20;;;12.40;99.90;;;;;;4183962;28;20234;-89
2022/05/30 05:59:14;;;;;;;11.68;6.47;;;12.50;99.90;;;;;;4200477;28;20209;-90
2022/05/30 06:01:19;;;;;;;9.90;6.20;;;12.80;99.90;;;;;;4200639;28;20167;-89
2022/05/30 06:03:20;;;;;;;9.90;5.32;;;12.80;99.90;;;;;;4200348;28;20280;-89
2022/05/30 06:05:40;;;;;;;8.95;5.32;;;12.80;99.90;;;;;;4201626;28;20621;-89
2022/05/30 06:08:16;;;;;;;11.13;5.65;;;12.60;99.90;;;;;;4200997;28;20195;-90
2022/05/30 06:10:33;;;;;;;10.23;4.97;;;12.50;99.90;;;;;;4185439;28;20171;-89
2022/05/30 06:12:43;;;;;;;11.15;5.07;;;12.60;99.90;;;;;;4184335;28;20556;-89
2022/05/30 06:14:45;;;;;;;10.65;5.18;;;12.60;99.90;;;;;;4200273;28;20167;-89
2022/05/30 06:16:46;;;;;;;10.25;5.32;;;12.40;99.90;;;;;;4183547;28;20202;-89
2022/05/30 06:18:55;;;;;;;9.32;4.40;;;12.50;99.90;;;;;;4184153;28;20249;-89
2022/05/30 06:20:59;;;;;;;9.48;4.70;;;12.40;99.90;;;;;;4183148;28;20164;-89
2022/05/30 06:23:02;;;;;;;9.48;4.50;;;12.40;99.90;;;;;;4199907;28;20280;-89
2022/05/30 06:25:36;;;;;;;11.23;4.72;;;12.60;99.90;;;;;;4156543;28;20215;-90
2022/05/30 06:28:01;;;;;;;8.35;4.03;;;12.90;99.90;;;;;;4199709;28;20377;-89
2022/05/30 06:30:07;;;;;;;9.18;3.85;;;13.20;99.90;;;;;;4199567;28;20171;-90
2022/05/30 06:32:09;;;;;;;9.05;4.00;;;13.40;99.90;;;;;;4199473;28;20178;-89
2022/05/30 06:34:28;;;;;;;9.52;4.43;;;13.50;99.90;;;;;;4185512;28;20168;-89
2022/05/30 06:36:30;;;;;;;12.52;4.30;;;13.40;99.90;;;;;;4183097;28;20262;-89
2022/05/30 06:38:31;;;;;;;11.60;4.82;;;13.70;99.90;;;;;;4183209;28;20187;-89
2022/05/30 06:40:42;;;;;;;12.60;4.60;;;13.40;99.90;;;;;;4184616;28;20177;-89
2022/05/30 06:42:51;;;;;;;13.23;4.40;;;13.50;99.90;;;;;;4199877;28;20170;-89
2022/05/30 06:45:05;;;;;;;9.65;3.95;;;13.30;99.90;;;;;;4199789;28;20171;-89
2022/05/30 06:47:40;;;;;;;11.10;3.97;;;13.20;99.90;;;;;;4166147;28;20235;-89
2022/05/30 06:50:13;;;;;;;14.93;5.20;;;13.10;99.90;;;;;;4157226;28;20171;-89
2022/05/30 06:52:14;;;;;;;10.88;4.20;;;13.00;99.90;;;;;;4183098;28;20262;-88
2022/05/30 06:54:15;;;;;;;14.02;4.22;;;13.10;99.90;;;;;;4183021;28;20197;-88
2022/05/30 06:56:19;;;;;;;12.23;3.67;;;14.10;99.90;;;;;;4183177;28;20183;-89
2022/05/30 06:58:20;;;;;;;10.32;3.92;;;14.30;99.90;;;;;;4199560;28;20195;-89
2022/05/30 07:00:21;;;;;;;12.85;4.38;;;14.40;99.90;;;;;;4183212;28;20206;-89
2022/05/30 07:02:40;;;;;;;14.02;4.70;;;15.00;99.90;;;;;;4199784;28;20174;-89
2022/05/30 07:05:04;;;;;;;10.70;3.83;;;15.50;99.90;;;;;;4199428;28;20214;-89
2022/05/30 07:07:24;;;;;;;12.80;4.60;;;15.70;99.90;;;;;;4199829;28;20716;-90
2022/05/30 07:09:43;;;;;;;12.63;3.67;;;15.40;99.90;;;;;;4199562;28;20558;-88
2022/05/30 07:12:03;;;;;;;9.73;3.17;;;15.90;99.90;;;;;;4199152;28;20182;-88
2022/05/30 07:14:10;;;;;;;14.95;3.58;;;16.20;99.90;;;;;;4199092;28;20190;-89
2022/05/30 07:16:12;;;;;;;12.00;3.42;;;16.40;99.90;;;;;;4199214;28;20539;-89
2022/05/30 07:18:14;;;;;;;13.80;2.30;;;16.10;99.90;;;;;;4199283;28;20563;-90
2022/05/30 07:20:15;;;;;;;13.38;2.63;;;15.90;99.90;;;;;;4183213;28;20170;-90
2022/05/30 07:22:34;;;;;;;12.00;2.20;;;15.50;99.90;;;;;;4211748;28;20270;-89
2022/05/30 07:24:53;;;;;;;6.10;1.67;;;16.00;99.90;;;;;;4202681;28;20169;-88
2022/05/30 07:27:03;;;;;;;9.30;2.13;;;16.20;99.90;;;;;;4199315;28;20686;-89
2022/05/30 07:29:33;;;;;;;10.45;2.00;;;16.00;99.90;;;;;;4136742;28;20681;-89
2022/05/30 07:32:00;;;;;;;11.80;2.33;;;15.90;99.90;;;;;;4199302;28;20194;-89
2022/05/30 07:34:19;;;;;;;9.18;1.67;;;16.40;99.90;;;;;;4200016;28;20232;-89
2022/05/30 07:36:39;;;;;;;10.07;1.70;;;16.50;99.90;;;;;;4199038;28;20224;-89
2022/05/30 07:38:56;;;;;;;8.88;2.25;;;17.00;99.90;;;;;;4184477;28;20206;-90
2022/05/30 07:41:19;;;;;;;6.63;1.33;;;16.70;99.90;;;;;;4197768;28;20261;-88
2022/05/30 07:43:36;;;;;;;9.05;1.88;;;16.70;99.90;;;;;;4198427;28;20194;-89
2022/05/30 07:46:06;;;;;;;8.73;1.98;;;17.30;99.90;;;;;;4184427;28;20261;-89
2022/05/30 07:48:27;;;;;;;11.55;1.80;;;17.40;99.90;;;;;;4198088;28;20272;-89
2022/05/30 07:51:04;;;;;;;8.57;1.80;;;18.30;99.90;;;;;;4148652;28;20204;-89
2022/05/30 07:53:32;;;;;;;11.05;1.55;;;19.10;99.90;;;;;;4181331;28;20256;-89
2022/05/30 07:55:39;;;;;;;7.90;1.83;;;18.60;99.90;;;;;;4198554;28;20508;-88
2022/05/30 07:57:52;;;;;;;10.93;2.17;;;18.90;99.90;;;;;;4198388;28;20198;-89
2022/05/30 07:59:55;;;;;;;15.35;2.28;;;19.40;99.90;;;;;;4198489;28;20170;-88
2022/05/30 08:01:59;;;;;;;10.55;2.47;;;18.70;99.90;;;;;;4198494;28;20175;-89
2022/05/30 08:04:02;;;;;;;11.88;2.28;;;18.70;99.90;;;;;;4198093;28;20174;-90
2022/05/30 08:06:28;;;;;;;8.27;2.40;;;19.10;99.90;;;;;;4179584;28;20214;-91
2022/05/30 08:08:48;;;;;;;7.28;2.10;;;20.20;99.90;;;;;;4199358;28;20551;-90
2022/05/30 08:10:48;;;;;;;6.95;1.50;;;21.10;99.90;;;;;;4181775;28;20163;-89
2022/05/30 08:12:50;;;;;;;9.13;1.83;;;20.60;99.90;;;;;;4197956;28;20201;-89
2022/05/30 08:15:04;;;;;;;9.32;1.75;;;20.00;99.90;;;;;;4198299;28;20253;-88
2022/05/30 08:17:28;;;;;;;7.57;1.88;;;20.00;99.90;;;;;;4199049;28;20210;-88
2022/05/30 08:19:29;;;;;;;10.30;2.47;;;20.30;99.90;;;;;;4181593;28;20551;-88
2022/05/30 08:21:29;;;;;;;9.30;1.70;;;20.20;99.90;;;;;;4197562;28;20170;-88
2022/05/30 08:23:31;;;;;;;6.53;1.65;;;20.10;99.90;;;;;;4181324;28;20244;-88
2022/05/30 08:25:37;;;;;;;6.68;1.48;;;19.70;99.90;;;;;;4198028;28;20202;-88
2022/05/30 08:27:37;;;;;;;5.63;1.55;;;19.30;99.90;;;;;;4181355;28;20207;-88
2022/05/30 08:29:42;;;;;;;9.15;1.75;;;19.80;99.90;;;;;;4181743;28;20175;-88
2022/05/30 08:31:43;;;;;;;7.70;1.90;;;21.70;99.90;;;;;;4181299;28;20536;-89
2022/05/30 08:34:04;;;;;;;7.13;1.60;;;23.30;99.90;;;;;;4187216;28;20178;-88
2022/05/30 08:36:13;;;;;;;5.50;1.33;;;23.90;99.90;;;;;;4197854;28;20170;-88
2022/05/30 08:38:15;;;;;;;8.05;1.58;;;23.20;99.90;;;;;;4181154;28;20223;-88
2022/05/30 08:42:51;;;;;;;9.23;1.25;;;21.80;99.90;;;;;;4197713;28;20652;-88
2022/05/30 08:45:12;;;;;;;5.32;1.33;;;20.90;99.90;;;;;;4183043;28;20179;-88
2022/05/30 08:47:44;;;;;;;8.05;1.60;;;20.30;99.90;;;;;;4197723;28;20666;-87
2022/05/30 08:49:52;;;;;;;4.97;1.23;;;19.90;99.90;;;;;;4181237;28;20176;-87
2022/05/30 08:52:41;;;;;;;6.55;1.48;;;19.70;99.90;;;;;;4197183;28;20170;-87
2022/05/30 08:55:22;;;;;;;6.15;1.30;;;19.90;99.90;;;;;;4099652;28;20175;-87
2022/05/30 08:57:56;;;;;;;10.73;1.40;;;19.90;99.90;;;;;;4131379;28;20212;-87
2022/05/30 09:00:35;;;;;;;5.20;1.20;;;19.80;99.90;;;;;;4115692;28;20189;-87
2022/05/30 09:03:35;;;;;;;5.05;1.20;;;19.70;99.90;;;;;;4177832;28;20713;-87
2022/05/30 09:05:50;;;;;;;5.20;1.10;;;19.60;99.90;;;;;;4181057;28;20594;-87
2022/05/30 09:07:56;;;;;;;6.70;1.38;;;19.70;99.90;;;;;;4197407;28;20190;-88
2022/05/30 09:10:20;;;;;;;6.57;1.02;;;20.40;99.90;;;;;;4197651;28;20191;-87
2022/05/30 09:12:45;;;;;;;4.53;1.00;;;21.10;99.90;;;;;;4197656;28;20181;-88
2022/05/30 09:15:07;;;;;;;3.97;1.00;;;21.30;99.90;;;;;;4182875;28;20171;-88
2022/05/30 09:17:15;;;;;;;7.40;1.20;;;21.30;99.90;;;;;;4180841;28;20210;-88
2022/05/30 09:19:20;;;;;;;4.72;1.30;;;21.80;99.90;;;;;;4180939;28;20179;-87
2022/05/30 09:21:23;;;;;;;6.35;1.10;;;21.80;99.90;;;;;;4181374;28;20210;-88
2022/05/30 09:23:25;;;;;;;7.53;1.30;;;22.30;99.90;;;;;;4214445;28;20261;-88
2022/05/30 09:25:56;;;;;;;4.57;0.90;;;22.10;99.90;;;;;;4181655;28;20200;-88
2022/05/30 09:28:17;;;;;;;7.00;1.20;;;21.80;99.90;;;;;;4197185;28;20230;-88
2022/05/30 09:31:03;;;;;;;5.07;0.90;;;21.30;99.90;;;;;;4197487;28;20186;-88
2022/05/30 09:33:39;;;;;;;7.18;1.13;;;21.10;99.90;;;;;;4197627;28;20205;-87
2022/05/30 09:36:24;;;;;;;2.65;1.00;;;20.60;99.90;;;;;;4197664;28;20702;-87
2022/05/30 09:39:15;;;;;;;5.18;1.10;;;19.90;99.90;;;;;;4197680;28;20179;-86
2022/05/30 09:41:20;;;;;;;5.88;1.05;;;18.80;99.90;;;;;;4197442;28;20167;-87
2022/05/30 09:43:28;;;;;;;7.03;1.20;;;18.40;99.90;;;;;;4197330;28;20232;-87
2022/05/30 09:45:30;;;;;;;5.07;1.08;;;18.10;99.90;;;;;;4197412;28;20167;-87
2022/05/30 09:48:03;;;;;;;4.55;1.52;;;17.90;99.90;;;;;;4197294;28;20675;-86
2022/05/30 09:50:14;;;;;;;6.22;1.05;;;17.10;99.90;;;;;;4197407;28;20301;-87
2022/05/30 09:52:37;;;;;;;3.45;1.00;;;16.40;99.90;;;;;;4201169;28;20605;-87
2022/05/30 09:54:46;;;;;;;8.70;1.30;;;16.30;99.90;;;;;;4198617;28;20233;-86
2022/05/30 09:56:47;;;;;;;5.00;1.20;;;16.70;99.90;;;;;;4180391;28;20210;-87
2022/05/30 09:59:25;;;;;;;6.90;1.23;;;16.90;99.90;;;;;;4197397;28;20197;-86
2022/05/30 10:01:37;;;;;;;8.30;1.63;;;16.10;99.90;;;;;;4176309;28;20629;-87
2022/05/30 10:03:41;;;;;;;8.32;1.58;;;15.40;99.90;;;;;;4181540;28;20164;-88
2022/05/30 10:06:14;;;;;;;7.63;1.80;;;15.60;99.90;;;;;;4200224;28;20171;-88
2022/05/30 10:08:27;;;;;;;3.85;1.38;;;16.70;99.90;;;;;;4200332;28;20229;-88
2022/05/30 10:10:47;;;;;;;7.07;1.25;;;16.60;99.90;;;;;;4200276;28;20175;-88
2022/05/30 10:13:08;;;;;;;9.40;1.48;;;15.80;99.90;;;;;;4200168;28;20175;-88
2022/05/30 10:15:43;;;;;;;4.20;1.25;;;15.80;99.90;;;;;;4133875;28;20210;-88
2022/05/30 10:17:44;;;;;;;6.13;1.30;;;15.80;99.90;;;;;;4215234;28;20205;-89
2022/05/30 10:19:48;;;;;;;8.75;1.40;;;15.70;99.90;;;;;;4200019;28;20173;-88
2022/05/30 10:28:32;;;;;;;3.72;1.20;;;16.70;99.90;;;;;;4200895;28;20344;-87
2022/05/30 10:31:14;;;;;;;10.15;1.40;;;16.60;99.90;;;;;;4124774;28;20196;-88
2022/05/30 10:33:55;;;;;;;4.45;1.27;;;16.30;99.90;;;;;;4199701;28;20178;-88
2022/05/30 10:36:07;;;;;;;9.63;1.60;;;16.00;99.90;;;;;;4183067;28;20215;-86
2022/05/30 10:38:10;;;;;;;6.45;1.60;;;15.80;99.90;;;;;;4182514;28;20183;-87
2022/05/30 10:40:23;;;;;;;10.90;1.70;;;15.60;99.90;;;;;;4182972;28;20179;-87
2022/05/30 10:42:28;;;;;;;5.75;1.42;;;15.50;99.90;;;;;;4182895;28;20175;-87
2022/05/30 10:44:35;;;;;;;8.93;1.60;;;15.20;99.90;;;;;;4183009;28;20176;-87
2022/05/30 10:46:42;;;;;;;8.60;1.40;;;15.20;99.90;;;;;;4199658;28;20190;-86
2022/05/30 10:49:08;;;;;;;7.70;1.55;;;15.30;99.90;;;;;;4199669;28;20562;-86
2022/05/30 10:51:22;;;;;;;5.40;1.25;;;15.30;99.90;;;;;;4199655;28;20257;-87
2022/05/30 10:53:55;;;;;;;4.22;1.23;;;15.30;99.90;;;;;;4199642;28;20609;-87
2022/05/30 10:56:20;;;;;;;4.32;1.20;;;15.80;99.90;;;;;;4200969;28;20300;-88
2022/05/30 10:58:34;;;;;;;6.78;1.42;;;16.10;99.90;;;;;;4199487;28;20272;-87
2022/05/30 11:00:42;;;;;;;8.50;1.45;;;16.30;99.90;;;;;;4181621;28;20179;-88
2022/05/30 11:03:08;;;;;;;9.80;1.52;;;16.00;99.90;;;;;;4199214;28;20663;-88
2022/05/30 11:05:14;;;;;;;5.22;1.63;;;15.90;99.90;;;;;;4182842;28;20180;-87
2022/05/30 11:07:40;;;;;;;4.63;1.17;;;16.00;99.90;;;;;;4182752;28;20197;-87
2022/05/30 11:09:50;;;;;;;6.10;1.42;;;16.30;99.90;;;;;;4182707;28;20172;-87
2022/05/30 11:12:09;;;;;;;6.07;1.65;;;16.50;99.90;;;;;;4182385;28;20262;-88
2022/05/30 11:14:21;;;;;;;5.07;1.30;;;16.70;99.90;;;;;;4199435;28;20194;-88
2022/05/30 11:16:53;;;;;;;4.63;1.50;;;16.50;99.90;;;;;;4198624;28;20366;-88
2022/05/30 11:19:41;;;;;;;4.38;1.25;;;16.90;99.90;;;;;;4199234;28;20178;-87
2022/05/30 11:22:09;;;;;;;5.40;1.60;;;17.70;99.90;;;;;;4199254;28;20650;-88
2022/05/30 11:24:11;;;;;;;6.00;1.52;;;18.10;99.90;;;;;;4198828;28;20232;-88
2022/05/30 11:26:37;;;;;;;7.53;1.63;;;17.70;99.90;;;;;;4182641;28;20170;-87
2022/05/30 11:28:57;;;;;;;8.18;1.42;;;17.20;99.90;;;;;;4164390;28;20371;-89
2022/05/30 11:31:10;;;;;;;5.85;1.42;;;17.70;99.90;;;;;;4199985;28;20635;-88
2022/05/30 11:33:49;;;;;;;8.45;1.52;;;18.00;99.90;;;;;;4182332;28;20290;-87
2022/05/30 11:36:14;;;;;;;7.32;1.73;;;18.00;99.90;;;;;;4181983;28;20211;-88
2022/05/30 11:38:32;;;;;;;9.55;1.30;;;18.10;99.90;;;;;;4198756;28;20187;-88
2022/05/30 11:40:35;;;;;;;5.40;1.38;;;18.20;99.90;;;;;;4182030;28;20221;-86